SIA899 VHHH-WSSS
Flight info
| Callsign | SIA899 |
|---|---|
| Flight time | 3h 8m |
| Altitude | 40000 |
| Route | PECAN V12 EPDOS L642 EPKAL/K0893F400 L642 ESPOB/N0480F400 Q801 ESBUM/N0480F410 Q802 ELALO ELALO1B |
| Aircraft | A359/H-SDE2E3GHIJ3J4J5LM1ORWXY/LB1D1 |
Departure
| Time | 2026-05-06 02:43 |
|---|---|
| Airport | Hong Kong International Airport (VHHH) |
Arrival
| Time | 2026-05-06 05:51 |
|---|---|
| Airport | Singapore Changi Airport (WSSS) |
| Time | Latitude | Longitude | Altitude | Speed | Heading |
|---|---|---|---|---|---|
| 2026-05-06 01:51 | 22.31456 | 113.93000 | 43 ft | 0 kts | 161° |
| 2026-05-06 02:29 | 22.31457 | 113.93000 | 43 ft | 2 kts | 161° |
| 2026-05-06 02:29 | 22.31472 | 113.92994 | 41 ft | 4 kts | 161° |
| 2026-05-06 02:30 | 22.31498 | 113.92985 | 39 ft | 4 kts | 160° |
| 2026-05-06 02:30 | 22.31518 | 113.92977 | 39 ft | 4 kts | 165° |
| 2026-05-06 02:30 | 22.31538 | 113.92974 | 41 ft | 4 kts | 204° |
| 2026-05-06 02:30 | 22.31555 | 113.92994 | 39 ft | 3 kts | 251° |
| 2026-05-06 02:31 | 22.31561 | 113.93011 | 39 ft | 4 kts | 251° |
| 2026-05-06 02:31 | 22.31569 | 113.93037 | 41 ft | 1 kts | 251° |
| 2026-05-06 02:31 | 22.31570 | 113.93037 | 41 ft | 5 kts | 251° |
| 2026-05-06 02:34 | 22.31558 | 113.93003 | 37 ft | 17 kts | 250° |
| 2026-05-06 02:34 | 22.31515 | 113.92870 | 43 ft | 19 kts | 251° |
| 2026-05-06 02:35 | 22.31508 | 113.92728 | 43 ft | 20 kts | 293° |
| 2026-05-06 02:35 | 22.31570 | 113.92588 | 43 ft | 21 kts | 295° |
| 2026-05-06 02:35 | 22.31635 | 113.92444 | 43 ft | 15 kts | 295° |
| 2026-05-06 02:35 | 22.31639 | 113.92343 | 43 ft | 15 kts | 250° |
| 2026-05-06 02:36 | 22.31602 | 113.92233 | 43 ft | 17 kts | 251° |
| 2026-05-06 02:36 | 22.31563 | 113.92109 | 43 ft | 18 kts | 251° |
| 2026-05-06 02:36 | 22.31519 | 113.91974 | 43 ft | 20 kts | 250° |
| 2026-05-06 02:36 | 22.31472 | 113.91830 | 43 ft | 21 kts | 250° |
| 2026-05-06 02:37 | 22.31422 | 113.91675 | 43 ft | 22 kts | 251° |
| 2026-05-06 02:37 | 22.31369 | 113.91511 | 43 ft | 24 kts | 251° |
| 2026-05-06 02:37 | 22.31314 | 113.91338 | 44 ft | 25 kts | 251° |
| 2026-05-06 02:37 | 22.31255 | 113.91157 | 43 ft | 26 kts | 250° |
| 2026-05-06 02:38 | 22.31193 | 113.90967 | 43 ft | 27 kts | 251° |
| 2026-05-06 02:38 | 22.31130 | 113.90770 | 43 ft | 29 kts | 251° |
| 2026-05-06 02:38 | 22.31063 | 113.90564 | 43 ft | 29 kts | 250° |
| 2026-05-06 02:38 | 22.31002 | 113.90374 | 43 ft | 26 kts | 251° |
| 2026-05-06 02:39 | 22.30941 | 113.90186 | 43 ft | 27 kts | 251° |
| 2026-05-06 02:39 | 22.30886 | 113.90016 | 43 ft | 17 kts | 251° |
| 2026-05-06 02:39 | 22.30852 | 113.89907 | 43 ft | 14 kts | 254° |
| 2026-05-06 02:39 | 22.30892 | 113.89829 | 43 ft | 13 kts | 334° |
| 2026-05-06 02:40 | 22.30948 | 113.89806 | 43 ft | 8 kts | 341° |
| 2026-05-06 02:40 | 22.30959 | 113.89802 | 43 ft | 0 kts | 341° |
| 2026-05-06 02:41 | 22.30988 | 113.89791 | 43 ft | 10 kts | 340° |
| 2026-05-06 02:41 | 22.31060 | 113.89773 | 43 ft | 11 kts | 10° |
| 2026-05-06 02:42 | 22.31106 | 113.89835 | 43 ft | 11 kts | 70° |
| 2026-05-06 02:42 | 22.31165 | 113.90012 | 43 ft | 54 kts | 71° |
| 2026-05-06 02:42 | 22.31362 | 113.90624 | 42 ft | 116 kts | 71° |
| 2026-05-06 02:42 | 22.31689 | 113.91634 | 48 ft | 168 kts | 70° |
| 2026-05-06 02:43 | 22.32100 | 113.92907 | 476 ft | 181 kts | 71° |
| 2026-05-06 02:43 | 22.32511 | 113.94142 | 1377 ft | 169 kts | 72° |
| 2026-05-06 02:43 | 22.32945 | 113.95406 | 1705 ft | 193 kts | 71° |
| 2026-05-06 02:43 | 22.33460 | 113.96833 | 2062 ft | 210 kts | 65° |
| 2026-05-06 02:44 | 22.34245 | 113.98194 | 2689 ft | 219 kts | 57° |
| 2026-05-06 02:44 | 22.35098 | 113.99567 | 3394 ft | 221 kts | 58° |
| 2026-05-06 02:44 | 22.35954 | 114.00946 | 4109 ft | 222 kts | 58° |
| 2026-05-06 02:44 | 22.36822 | 114.02337 | 4786 ft | 225 kts | 57° |
| 2026-05-06 02:45 | 22.37719 | 114.03765 | 5323 ft | 234 kts | 57° |
| 2026-05-06 02:45 | 22.38655 | 114.05246 | 5927 ft | 241 kts | 57° |
| 2026-05-06 02:45 | 22.39593 | 114.06748 | 6624 ft | 243 kts | 58° |
| 2026-05-06 02:45 | 22.40172 | 114.08456 | 7233 ft | 245 kts | 90° |
| 2026-05-06 02:46 | 22.39824 | 114.10235 | 7911 ft | 246 kts | 114° |
| 2026-05-06 02:46 | 22.39099 | 114.11992 | 8292 ft | 267 kts | 117° |
| 2026-05-06 02:46 | 22.38281 | 114.13880 | 8671 ft | 286 kts | 116° |
| 2026-05-06 02:46 | 22.37439 | 114.15881 | 9255 ft | 297 kts | 115° |
| 2026-05-06 02:47 | 22.36587 | 114.17949 | 9944 ft | 305 kts | 115° |
| 2026-05-06 02:47 | 22.35719 | 114.20079 | 10437 ft | 318 kts | 115° |
| 2026-05-06 02:47 | 22.34802 | 114.22337 | 10801 ft | 337 kts | 115° |
| 2026-05-06 02:47 | 22.33814 | 114.24710 | 11096 ft | 354 kts | 118° |
| 2026-05-06 02:48 | 22.32373 | 114.26898 | 11427 ft | 364 kts | 138° |
| 2026-05-06 02:48 | 22.30305 | 114.28413 | 11946 ft | 366 kts | 156° |
| 2026-05-06 02:48 | 22.27985 | 114.29574 | 12509 ft | 371 kts | 159° |
| 2026-05-06 02:48 | 22.25611 | 114.30713 | 13110 ft | 376 kts | 158° |
| 2026-05-06 02:49 | 22.23291 | 114.32059 | 13700 ft | 382 kts | 149° |
| 2026-05-06 02:49 | 22.21102 | 114.33721 | 14235 ft | 387 kts | 146° |
| 2026-05-06 02:49 | 22.18926 | 114.35451 | 14764 ft | 390 kts | 146° |
| 2026-05-06 02:49 | 22.16743 | 114.37185 | 15275 ft | 393 kts | 146° |
| 2026-05-06 02:50 | 22.14409 | 114.38730 | 15771 ft | 393 kts | 157° |
| 2026-05-06 02:50 | 22.11818 | 114.39637 | 16254 ft | 391 kts | 173° |
| 2026-05-06 02:50 | 22.09118 | 114.39636 | 16740 ft | 388 kts | 193° |
| 2026-05-06 02:50 | 22.06595 | 114.38692 | 17253 ft | 385 kts | 208° |
| 2026-05-06 02:51 | 22.04211 | 114.37360 | 17728 ft | 388 kts | 211° |
| 2026-05-06 02:51 | 22.01821 | 114.35986 | 18209 ft | 391 kts | 210° |
| 2026-05-06 02:51 | 21.99402 | 114.34605 | 18627 ft | 395 kts | 210° |
| 2026-05-06 02:51 | 21.96961 | 114.33222 | 19054 ft | 397 kts | 210° |
| 2026-05-06 02:52 | 21.94505 | 114.31836 | 19486 ft | 400 kts | 210° |
| 2026-05-06 02:52 | 21.92028 | 114.30443 | 19923 ft | 402 kts | 207° |
| 2026-05-06 02:52 | 21.89535 | 114.29057 | 20324 ft | 405 kts | 210° |
| 2026-05-06 02:52 | 21.87028 | 114.27640 | 20784 ft | 408 kts | 210° |
| 2026-05-06 02:53 | 21.84535 | 114.26236 | 21250 ft | 410 kts | 210° |
| 2026-05-06 02:53 | 21.82001 | 114.24812 | 21697 ft | 413 kts | 210° |
| 2026-05-06 02:53 | 21.79444 | 114.23375 | 22154 ft | 416 kts | 210° |
| 2026-05-06 02:53 | 21.76868 | 114.21930 | 22614 ft | 419 kts | 210° |
| 2026-05-06 02:54 | 21.74278 | 114.20479 | 23050 ft | 422 kts | 210° |
| 2026-05-06 02:54 | 21.71661 | 114.19013 | 23494 ft | 425 kts | 210° |
| 2026-05-06 02:54 | 21.69035 | 114.17542 | 23881 ft | 427 kts | 210° |
| 2026-05-06 02:54 | 21.66387 | 114.16060 | 24262 ft | 430 kts | 210° |
| 2026-05-06 02:55 | 21.63731 | 114.14574 | 24653 ft | 432 kts | 210° |
| 2026-05-06 02:55 | 21.61048 | 114.13074 | 25071 ft | 435 kts | 210° |
| 2026-05-06 02:55 | 21.58361 | 114.11571 | 25510 ft | 437 kts | 210° |
| 2026-05-06 02:55 | 21.55654 | 114.10059 | 25939 ft | 440 kts | 210° |
| 2026-05-06 02:56 | 21.52930 | 114.08537 | 26369 ft | 442 kts | 210° |
| 2026-05-06 02:56 | 21.50194 | 114.07010 | 26802 ft | 445 kts | 210° |
| 2026-05-06 02:56 | 21.47428 | 114.05473 | 27226 ft | 448 kts | 209° |
| 2026-05-06 02:56 | 21.44545 | 114.04151 | 27645 ft | 454 kts | 201° |
| 2026-05-06 02:57 | 21.41454 | 114.03347 | 28060 ft | 460 kts | 192° |
| 2026-05-06 02:57 | 21.38261 | 114.02912 | 28479 ft | 465 kts | 188° |
| 2026-05-06 02:57 | 21.35017 | 114.02663 | 28888 ft | 469 kts | 186° |
| 2026-05-06 02:57 | 21.31748 | 114.02494 | 29283 ft | 472 kts | 185° |
| 2026-05-06 02:58 | 21.28457 | 114.02343 | 29664 ft | 475 kts | 185° |
| 2026-05-06 02:58 | 21.25146 | 114.02179 | 30037 ft | 478 kts | 186° |
| 2026-05-06 02:58 | 21.21865 | 114.01997 | 30336 ft | 480 kts | 186° |
| 2026-05-06 02:58 | 21.18519 | 114.01792 | 30667 ft | 483 kts | 186° |
| 2026-05-06 02:59 | 21.15155 | 114.01574 | 30989 ft | 485 kts | 187° |
| 2026-05-06 02:59 | 21.11783 | 114.01349 | 31312 ft | 487 kts | 187° |
| 2026-05-06 02:59 | 21.08387 | 114.01120 | 31624 ft | 490 kts | 187° |
| 2026-05-06 02:59 | 21.04983 | 114.00890 | 31921 ft | 492 kts | 187° |
| 2026-05-06 03:00 | 21.01544 | 114.00659 | 32227 ft | 494 kts | 187° |
| 2026-05-06 03:00 | 20.98104 | 114.00428 | 32521 ft | 496 kts | 187° |
| 2026-05-06 03:00 | 20.94665 | 114.00141 | 32784 ft | 496 kts | 191° |
| 2026-05-06 03:00 | 20.91264 | 113.99524 | 33068 ft | 496 kts | 194° |
| 2026-05-06 03:01 | 20.87875 | 113.98792 | 33333 ft | 497 kts | 195° |
| 2026-05-06 03:01 | 20.84486 | 113.98016 | 33596 ft | 499 kts | 196° |
| 2026-05-06 03:01 | 20.81089 | 113.97218 | 33853 ft | 500 kts | 196° |
| 2026-05-06 03:01 | 20.77699 | 113.96417 | 34180 ft | 499 kts | 196° |
| 2026-05-06 03:02 | 20.74308 | 113.95617 | 34498 ft | 498 kts | 196° |
| 2026-05-06 03:02 | 20.70924 | 113.94823 | 34814 ft | 497 kts | 196° |
| 2026-05-06 03:02 | 20.67587 | 113.94043 | 35119 ft | 496 kts | 196° |
| 2026-05-06 03:02 | 20.64212 | 113.93257 | 35403 ft | 496 kts | 195° |
| 2026-05-06 03:03 | 20.60845 | 113.92474 | 35699 ft | 495 kts | 195° |
| 2026-05-06 03:03 | 20.57471 | 113.91691 | 35978 ft | 495 kts | 195° |
| 2026-05-06 03:03 | 20.54112 | 113.90911 | 36253 ft | 494 kts | 195° |
| 2026-05-06 03:03 | 20.50753 | 113.90132 | 36525 ft | 494 kts | 195° |
| 2026-05-06 03:04 | 20.47387 | 113.89352 | 36793 ft | 494 kts | 195° |
| 2026-05-06 03:04 | 20.44030 | 113.88574 | 37057 ft | 493 kts | 195° |
| 2026-05-06 03:04 | 20.40675 | 113.87796 | 37311 ft | 493 kts | 195° |
| 2026-05-06 03:04 | 20.37368 | 113.87030 | 37563 ft | 493 kts | 195° |
| 2026-05-06 03:05 | 20.34024 | 113.86256 | 37803 ft | 492 kts | 195° |
| 2026-05-06 03:05 | 20.30676 | 113.85482 | 38053 ft | 492 kts | 195° |
| 2026-05-06 03:05 | 20.27328 | 113.84707 | 38276 ft | 492 kts | 195° |
| 2026-05-06 03:05 | 20.23988 | 113.83935 | 38493 ft | 492 kts | 195° |
| 2026-05-06 03:06 | 20.20640 | 113.83162 | 38697 ft | 492 kts | 195° |
| 2026-05-06 03:06 | 20.17297 | 113.82389 | 38859 ft | 492 kts | 195° |
| 2026-05-06 03:06 | 20.13948 | 113.81616 | 39015 ft | 492 kts | 195° |
| 2026-05-06 03:06 | 20.10597 | 113.80842 | 39157 ft | 493 kts | 195° |
| 2026-05-06 03:07 | 20.07251 | 113.80070 | 39307 ft | 493 kts | 195° |
| 2026-05-06 03:07 | 20.03898 | 113.79297 | 39466 ft | 493 kts | 195° |
| 2026-05-06 03:07 | 20.00544 | 113.78524 | 39620 ft | 493 kts | 195° |
| 2026-05-06 03:07 | 19.97195 | 113.77753 | 39769 ft | 493 kts | 195° |
| 2026-05-06 03:08 | 19.93835 | 113.76979 | 39914 ft | 493 kts | 195° |
| 2026-05-06 03:08 | 19.87113 | 113.75432 | 39961 ft | 494 kts | 195° |
| 2026-05-06 03:09 | 19.80401 | 113.73889 | 39951 ft | 494 kts | 195° |
| 2026-05-06 03:09 | 19.73720 | 113.72354 | 39962 ft | 494 kts | 195° |
| 2026-05-06 03:10 | 19.67001 | 113.70811 | 39958 ft | 494 kts | 195° |
| 2026-05-06 03:10 | 19.60286 | 113.69271 | 39947 ft | 494 kts | 195° |
| 2026-05-06 03:11 | 19.53563 | 113.67731 | 39952 ft | 494 kts | 195° |
| 2026-05-06 03:11 | 19.46847 | 113.66193 | 39958 ft | 494 kts | 195° |
| 2026-05-06 03:12 | 19.40125 | 113.64656 | 39957 ft | 494 kts | 195° |
| 2026-05-06 03:12 | 19.33394 | 113.63117 | 39957 ft | 494 kts | 195° |
| 2026-05-06 03:13 | 19.26683 | 113.61585 | 39951 ft | 494 kts | 195° |
| 2026-05-06 03:13 | 19.19944 | 113.60047 | 39951 ft | 497 kts | 195° |
| 2026-05-06 03:14 | 19.13139 | 113.58493 | 39955 ft | 503 kts | 195° |
| 2026-05-06 03:14 | 19.06279 | 113.56931 | 39957 ft | 506 kts | 195° |
| 2026-05-06 03:15 | 18.99414 | 113.55370 | 39945 ft | 508 kts | 195° |
| 2026-05-06 03:15 | 18.92415 | 113.54177 | 39947 ft | 510 kts | 189° |
| 2026-05-06 03:16 | 18.85373 | 113.53305 | 39945 ft | 510 kts | 189° |
| 2026-05-06 03:16 | 18.78331 | 113.52391 | 39948 ft | 509 kts | 190° |
| 2026-05-06 03:17 | 18.71309 | 113.51410 | 39946 ft | 509 kts | 190° |
| 2026-05-06 03:17 | 18.64289 | 113.50405 | 39942 ft | 509 kts | 190° |
| 2026-05-06 03:18 | 18.58497 | 113.49335 | 39945 ft | 506 kts | 198° |
| 2026-05-06 03:18 | 18.51158 | 113.45698 | 39943 ft | 497 kts | 217° |
| 2026-05-06 03:19 | 18.46467 | 113.42202 | 39941 ft | 497 kts | 219° |
| 2026-05-06 03:19 | 18.40908 | 113.37856 | 39939 ft | 498 kts | 219° |
| 2026-05-06 03:20 | 18.32540 | 113.31341 | 39942 ft | 498 kts | 219° |
| 2026-05-06 03:20 | 18.26946 | 113.27031 | 39940 ft | 498 kts | 218° |
| 2026-05-06 03:21 | 18.21380 | 113.22754 | 39946 ft | 499 kts | 218° |
| 2026-05-06 03:21 | 18.15775 | 113.18451 | 39940 ft | 499 kts | 218° |
| 2026-05-06 03:22 | 18.10164 | 113.14144 | 39941 ft | 499 kts | 218° |
| 2026-05-06 03:22 | 18.04557 | 113.09843 | 39930 ft | 499 kts | 218° |
| 2026-05-06 03:23 | 17.98941 | 113.05540 | 39936 ft | 499 kts | 218° |
| 2026-05-06 03:23 | 17.93326 | 113.01240 | 39933 ft | 499 kts | 218° |
| 2026-05-06 03:24 | 17.87711 | 112.96944 | 39936 ft | 499 kts | 218° |
| 2026-05-06 03:24 | 17.82142 | 112.92663 | 39937 ft | 499 kts | 219° |
| 2026-05-06 03:25 | 17.76595 | 112.88283 | 39935 ft | 499 kts | 219° |
| 2026-05-06 03:25 | 17.71053 | 112.83895 | 39936 ft | 499 kts | 219° |
| 2026-05-06 03:26 | 17.65502 | 112.79524 | 39934 ft | 499 kts | 219° |
| 2026-05-06 03:26 | 17.59955 | 112.75170 | 39939 ft | 499 kts | 219° |
| 2026-05-06 03:27 | 17.54387 | 112.70806 | 39940 ft | 499 kts | 219° |
| 2026-05-06 03:27 | 17.48825 | 112.66450 | 39942 ft | 499 kts | 219° |
| 2026-05-06 03:28 | 17.43263 | 112.62096 | 39939 ft | 499 kts | 219° |
| 2026-05-06 03:28 | 17.37706 | 112.57749 | 39941 ft | 499 kts | 219° |
| 2026-05-06 03:29 | 17.32150 | 112.53406 | 39936 ft | 499 kts | 219° |
| 2026-05-06 03:29 | 17.26589 | 112.49063 | 39937 ft | 499 kts | 219° |
| 2026-05-06 03:30 | 17.21059 | 112.44747 | 39936 ft | 499 kts | 219° |
| 2026-05-06 03:30 | 17.15493 | 112.40407 | 39934 ft | 499 kts | 219° |
| 2026-05-06 03:31 | 17.09924 | 112.36067 | 39938 ft | 499 kts | 219° |
| 2026-05-06 03:31 | 17.04357 | 112.31733 | 39935 ft | 499 kts | 219° |
| 2026-05-06 03:32 | 16.98778 | 112.27395 | 39930 ft | 499 kts | 219° |
| 2026-05-06 03:32 | 16.93162 | 112.23114 | 39932 ft | 500 kts | 218° |
| 2026-05-06 03:33 | 16.87525 | 112.18863 | 39929 ft | 500 kts | 218° |
| 2026-05-06 03:33 | 16.81896 | 112.14611 | 39932 ft | 500 kts | 218° |
| 2026-05-06 03:34 | 16.76265 | 112.10350 | 39932 ft | 500 kts | 218° |
| 2026-05-06 03:34 | 16.70671 | 112.06117 | 39931 ft | 500 kts | 218° |
| 2026-05-06 03:35 | 16.65035 | 112.01855 | 39930 ft | 500 kts | 218° |
| 2026-05-06 03:35 | 16.59391 | 111.97590 | 39928 ft | 501 kts | 218° |
| 2026-05-06 03:36 | 16.53746 | 111.93329 | 39930 ft | 501 kts | 218° |
| 2026-05-06 03:36 | 16.48095 | 111.89066 | 39929 ft | 501 kts | 218° |
| 2026-05-06 03:37 | 16.42446 | 111.84808 | 39928 ft | 502 kts | 218° |
| 2026-05-06 03:37 | 16.36785 | 111.80543 | 39927 ft | 502 kts | 218° |
| 2026-05-06 03:38 | 16.31122 | 111.76281 | 39928 ft | 502 kts | 218° |
| 2026-05-06 03:38 | 16.25497 | 111.72050 | 39925 ft | 502 kts | 218° |
| 2026-05-06 03:39 | 16.19837 | 111.67795 | 39928 ft | 502 kts | 218° |
| 2026-05-06 03:39 | 16.14164 | 111.63535 | 39926 ft | 502 kts | 218° |
| 2026-05-06 03:40 | 16.08489 | 111.59275 | 39927 ft | 503 kts | 218° |
| 2026-05-06 03:40 | 16.02816 | 111.55021 | 39927 ft | 503 kts | 218° |
| 2026-05-06 03:41 | 15.97153 | 111.50776 | 39928 ft | 502 kts | 218° |
| 2026-05-06 03:41 | 15.91473 | 111.46523 | 39928 ft | 502 kts | 218° |
| 2026-05-06 03:42 | 15.85839 | 111.42306 | 39927 ft | 502 kts | 218° |
| 2026-05-06 03:42 | 15.80165 | 111.38062 | 39924 ft | 502 kts | 218° |
| 2026-05-06 03:43 | 15.75411 | 111.34509 | 39928 ft | 502 kts | 218° |
| 2026-05-06 03:43 | 15.68815 | 111.29583 | 39926 ft | 502 kts | 218° |
| 2026-05-06 03:44 | 15.63145 | 111.25352 | 39927 ft | 502 kts | 218° |
| 2026-05-06 03:44 | 15.57474 | 111.21122 | 39928 ft | 502 kts | 218° |
| 2026-05-06 03:45 | 15.51796 | 111.16891 | 39924 ft | 503 kts | 218° |
| 2026-05-06 03:45 | 15.46110 | 111.12656 | 39924 ft | 503 kts | 218° |
| 2026-05-06 03:46 | 15.40422 | 111.08423 | 39922 ft | 503 kts | 218° |
| 2026-05-06 03:46 | 15.34730 | 111.04191 | 39934 ft | 503 kts | 217° |
| 2026-05-06 03:47 | 15.29076 | 110.99919 | 39920 ft | 503 kts | 218° |
| 2026-05-06 03:47 | 15.23483 | 110.95641 | 39924 ft | 503 kts | 218° |
| 2026-05-06 03:48 | 15.17843 | 110.91342 | 39936 ft | 503 kts | 218° |
| 2026-05-06 03:48 | 15.12197 | 110.87053 | 39918 ft | 503 kts | 218° |
| 2026-05-06 03:49 | 15.06543 | 110.82767 | 39918 ft | 504 kts | 218° |
| 2026-05-06 03:49 | 15.00889 | 110.78484 | 39933 ft | 503 kts | 218° |
| 2026-05-06 03:50 | 14.95234 | 110.74202 | 39934 ft | 503 kts | 218° |
| 2026-05-06 03:50 | 14.89590 | 110.69931 | 39916 ft | 503 kts | 218° |
| 2026-05-06 03:51 | 14.83940 | 110.65658 | 39915 ft | 503 kts | 218° |
| 2026-05-06 03:51 | 14.78286 | 110.61385 | 39926 ft | 503 kts | 218° |
| 2026-05-06 03:52 | 14.72640 | 110.57121 | 39930 ft | 503 kts | 218° |
| 2026-05-06 03:52 | 14.66990 | 110.52856 | 39927 ft | 503 kts | 218° |
| 2026-05-06 03:53 | 14.61375 | 110.48622 | 39926 ft | 503 kts | 218° |
| 2026-05-06 03:53 | 14.55729 | 110.44365 | 39924 ft | 503 kts | 218° |
| 2026-05-06 03:54 | 14.50073 | 110.40105 | 39926 ft | 503 kts | 218° |
| 2026-05-06 03:54 | 14.44421 | 110.35850 | 39923 ft | 503 kts | 218° |
| 2026-05-06 03:55 | 14.38765 | 110.31595 | 39925 ft | 503 kts | 218° |
| 2026-05-06 03:55 | 14.33109 | 110.27343 | 39922 ft | 503 kts | 218° |
| 2026-05-06 03:56 | 14.27454 | 110.23094 | 39923 ft | 503 kts | 218° |
| 2026-05-06 03:56 | 14.21791 | 110.18842 | 39925 ft | 503 kts | 218° |
| 2026-05-06 03:57 | 14.16126 | 110.14590 | 39923 ft | 503 kts | 218° |
| 2026-05-06 03:57 | 14.10465 | 110.10345 | 39922 ft | 503 kts | 218° |
| 2026-05-06 03:58 | 14.04801 | 110.06101 | 39925 ft | 504 kts | 217° |
| 2026-05-06 03:58 | 13.99131 | 110.01854 | 39927 ft | 503 kts | 217° |
| 2026-05-06 03:59 | 13.93413 | 109.97686 | 39927 ft | 504 kts | 214° |
| 2026-05-06 03:59 | 13.87449 | 109.93893 | 39925 ft | 503 kts | 212° |
| 2026-05-06 04:00 | 13.81499 | 109.90194 | 39926 ft | 503 kts | 213° |
| 2026-05-06 04:00 | 13.75543 | 109.86419 | 39925 ft | 502 kts | 213° |
| 2026-05-06 04:01 | 13.69617 | 109.82616 | 39927 ft | 502 kts | 213° |
| 2026-05-06 04:01 | 13.63699 | 109.78809 | 39929 ft | 501 kts | 213° |
| 2026-05-06 04:02 | 13.57784 | 109.75009 | 39927 ft | 501 kts | 213° |
| 2026-05-06 04:02 | 13.51865 | 109.71212 | 39925 ft | 501 kts | 213° |
| 2026-05-06 04:03 | 13.45951 | 109.67421 | 39928 ft | 501 kts | 213° |
| 2026-05-06 04:03 | 13.40028 | 109.63626 | 39927 ft | 501 kts | 213° |
| 2026-05-06 04:04 | 13.34120 | 109.59842 | 39926 ft | 501 kts | 213° |
| 2026-05-06 04:04 | 13.28239 | 109.56079 | 39926 ft | 501 kts | 213° |
| 2026-05-06 04:05 | 13.22322 | 109.52295 | 39930 ft | 501 kts | 213° |
| 2026-05-06 04:05 | 13.16412 | 109.48517 | 39930 ft | 501 kts | 213° |
| 2026-05-06 04:06 | 13.10498 | 109.44739 | 39936 ft | 501 kts | 213° |
| 2026-05-06 04:06 | 13.05544 | 109.41576 | 39935 ft | 501 kts | 213° |
| 2026-05-06 04:07 | 12.99671 | 109.37828 | 39936 ft | 501 kts | 213° |
| 2026-05-06 04:07 | 12.93756 | 109.34055 | 39940 ft | 500 kts | 213° |
| 2026-05-06 04:08 | 12.87842 | 109.30285 | 39940 ft | 500 kts | 213° |
| 2026-05-06 04:08 | 12.81926 | 109.26516 | 39942 ft | 500 kts | 213° |
| 2026-05-06 04:09 | 12.76011 | 109.22750 | 39942 ft | 500 kts | 213° |
| 2026-05-06 04:09 | 12.70101 | 109.18989 | 39947 ft | 500 kts | 213° |
| 2026-05-06 04:10 | 12.64184 | 109.15227 | 39948 ft | 500 kts | 213° |
| 2026-05-06 04:10 | 12.58267 | 109.11475 | 39949 ft | 500 kts | 213° |
| 2026-05-06 04:11 | 12.52352 | 109.07717 | 39950 ft | 500 kts | 213° |
| 2026-05-06 04:11 | 12.46436 | 109.03961 | 39953 ft | 500 kts | 213° |
| 2026-05-06 04:12 | 12.40523 | 109.00212 | 39956 ft | 500 kts | 213° |
| 2026-05-06 04:12 | 12.34638 | 108.96483 | 39958 ft | 500 kts | 213° |
| 2026-05-06 04:13 | 12.28719 | 108.92734 | 39962 ft | 500 kts | 213° |
| 2026-05-06 04:13 | 12.22790 | 108.88981 | 39972 ft | 501 kts | 213° |
| 2026-05-06 04:14 | 12.16873 | 108.85238 | 39967 ft | 500 kts | 213° |
| 2026-05-06 04:14 | 12.10945 | 108.81490 | 39973 ft | 500 kts | 213° |
| 2026-05-06 04:15 | 12.05053 | 108.77767 | 39972 ft | 501 kts | 213° |
| 2026-05-06 04:15 | 11.99127 | 108.74023 | 39973 ft | 501 kts | 213° |
| 2026-05-06 04:16 | 11.93192 | 108.70275 | 39972 ft | 501 kts | 213° |
| 2026-05-06 04:16 | 11.87255 | 108.66531 | 39968 ft | 502 kts | 213° |
| 2026-05-06 04:17 | 11.81314 | 108.62790 | 39965 ft | 502 kts | 213° |
| 2026-05-06 04:17 | 11.75371 | 108.59045 | 39963 ft | 502 kts | 213° |
| 2026-05-06 04:18 | 11.69427 | 108.55296 | 39958 ft | 502 kts | 213° |
| 2026-05-06 04:18 | 11.63472 | 108.51544 | 39953 ft | 503 kts | 213° |
| 2026-05-06 04:19 | 11.57513 | 108.47794 | 39945 ft | 503 kts | 213° |
| 2026-05-06 04:19 | 11.51548 | 108.44043 | 39940 ft | 504 kts | 213° |
| 2026-05-06 04:20 | 11.45620 | 108.40317 | 39933 ft | 504 kts | 213° |
| 2026-05-06 04:20 | 11.39648 | 108.36567 | 39925 ft | 504 kts | 213° |
| 2026-05-06 04:21 | 11.33679 | 108.32819 | 39919 ft | 504 kts | 213° |
| 2026-05-06 04:21 | 11.27705 | 108.29070 | 39916 ft | 504 kts | 213° |
| 2026-05-06 04:22 | 11.21734 | 108.25324 | 39910 ft | 503 kts | 213° |
| 2026-05-06 04:23 | 11.12793 | 108.19721 | 39902 ft | 503 kts | 213° |
| 2026-05-06 04:23 | 11.06830 | 108.15983 | 39901 ft | 503 kts | 213° |
| 2026-05-06 04:24 | 11.00866 | 108.12247 | 39898 ft | 503 kts | 213° |
| 2026-05-06 04:24 | 10.94905 | 108.08515 | 39892 ft | 503 kts | 213° |
| 2026-05-06 04:25 | 10.89001 | 108.04776 | 39891 ft | 502 kts | 214° |
| 2026-05-06 04:25 | 10.83156 | 108.00864 | 39890 ft | 502 kts | 214° |
| 2026-05-06 04:26 | 10.77328 | 107.96937 | 39885 ft | 502 kts | 214° |
| 2026-05-06 04:26 | 10.71476 | 107.93028 | 39887 ft | 504 kts | 214° |
| 2026-05-06 04:27 | 10.65604 | 107.89132 | 39887 ft | 504 kts | 213° |
| 2026-05-06 04:27 | 10.59725 | 107.85236 | 39885 ft | 504 kts | 213° |
| 2026-05-06 04:28 | 10.53881 | 107.81364 | 39890 ft | 505 kts | 213° |
| 2026-05-06 04:28 | 10.47993 | 107.77463 | 39888 ft | 505 kts | 213° |
| 2026-05-06 04:29 | 10.42097 | 107.73567 | 39887 ft | 506 kts | 213° |
| 2026-05-06 04:29 | 10.36184 | 107.69669 | 39884 ft | 506 kts | 213° |
| 2026-05-06 04:30 | 10.30272 | 107.65773 | 39885 ft | 506 kts | 213° |
| 2026-05-06 04:30 | 10.24357 | 107.61877 | 39889 ft | 507 kts | 213° |
| 2026-05-06 04:31 | 10.18442 | 107.57982 | 39883 ft | 507 kts | 213° |
| 2026-05-06 04:31 | 10.12510 | 107.54081 | 39888 ft | 507 kts | 213° |
| 2026-05-06 04:32 | 10.06583 | 107.50175 | 39888 ft | 508 kts | 213° |
| 2026-05-06 04:32 | 10.00705 | 107.46294 | 39885 ft | 508 kts | 213° |
| 2026-05-06 04:33 | 9.94774 | 107.42379 | 39886 ft | 508 kts | 213° |
| 2026-05-06 04:33 | 9.88847 | 107.38474 | 39890 ft | 508 kts | 213° |
| 2026-05-06 04:34 | 9.82917 | 107.34568 | 39887 ft | 507 kts | 213° |
| 2026-05-06 04:34 | 9.77000 | 107.30674 | 39886 ft | 507 kts | 213° |
| 2026-05-06 04:35 | 9.71075 | 107.26774 | 39889 ft | 507 kts | 213° |
| 2026-05-06 04:35 | 9.65148 | 107.22876 | 39885 ft | 508 kts | 213° |
| 2026-05-06 04:36 | 9.59224 | 107.18981 | 39887 ft | 508 kts | 213° |
| 2026-05-06 04:36 | 9.53334 | 107.15109 | 39885 ft | 508 kts | 213° |
| 2026-05-06 04:37 | 9.47411 | 107.11217 | 39883 ft | 507 kts | 213° |
| 2026-05-06 04:37 | 9.41485 | 107.07325 | 39883 ft | 507 kts | 213° |
| 2026-05-06 04:38 | 9.35556 | 107.03434 | 39885 ft | 508 kts | 213° |
| 2026-05-06 04:38 | 9.29626 | 106.99543 | 39889 ft | 507 kts | 213° |
| 2026-05-06 04:39 | 9.23702 | 106.95657 | 39886 ft | 507 kts | 213° |
| 2026-05-06 04:39 | 9.17764 | 106.91765 | 39885 ft | 507 kts | 213° |
| 2026-05-06 04:40 | 9.11871 | 106.87903 | 39881 ft | 508 kts | 213° |
| 2026-05-06 04:40 | 9.05943 | 106.84019 | 39884 ft | 508 kts | 213° |
| 2026-05-06 04:41 | 8.99997 | 106.80126 | 39884 ft | 509 kts | 213° |
| 2026-05-06 04:41 | 8.94052 | 106.76236 | 39881 ft | 509 kts | 213° |
| 2026-05-06 04:42 | 8.88096 | 106.72339 | 39882 ft | 510 kts | 213° |
| 2026-05-06 04:42 | 8.82131 | 106.68437 | 39881 ft | 511 kts | 213° |
| 2026-05-06 04:43 | 8.76168 | 106.64539 | 39885 ft | 511 kts | 213° |
| 2026-05-06 04:43 | 8.70179 | 106.60656 | 39883 ft | 511 kts | 212° |
| 2026-05-06 04:44 | 8.64114 | 106.56896 | 39886 ft | 511 kts | 211° |
| 2026-05-06 04:44 | 8.58029 | 106.53158 | 39885 ft | 512 kts | 211° |
| 2026-05-06 04:45 | 8.51986 | 106.49425 | 39885 ft | 512 kts | 211° |
| 2026-05-06 04:45 | 8.45913 | 106.45659 | 39886 ft | 513 kts | 212° |
| 2026-05-06 04:46 | 8.39836 | 106.41887 | 39881 ft | 512 kts | 211° |
| 2026-05-06 04:46 | 8.33758 | 106.38117 | 39881 ft | 512 kts | 211° |
| 2026-05-06 04:47 | 8.27680 | 106.34349 | 39882 ft | 513 kts | 211° |
| 2026-05-06 04:47 | 8.21597 | 106.30579 | 39878 ft | 513 kts | 211° |
| 2026-05-06 04:48 | 8.15512 | 106.26810 | 39882 ft | 513 kts | 211° |
| 2026-05-06 04:48 | 8.09427 | 106.23042 | 39882 ft | 513 kts | 211° |
| 2026-05-06 04:49 | 8.03331 | 106.19270 | 39883 ft | 513 kts | 211° |
| 2026-05-06 04:49 | 7.97240 | 106.15502 | 39880 ft | 513 kts | 211° |
| 2026-05-06 04:50 | 7.91194 | 106.11761 | 39886 ft | 513 kts | 211° |
| 2026-05-06 04:50 | 7.85108 | 106.07999 | 39877 ft | 512 kts | 211° |
| 2026-05-06 04:51 | 7.79029 | 106.04241 | 39878 ft | 512 kts | 211° |
| 2026-05-06 04:51 | 7.72948 | 106.00483 | 39877 ft | 512 kts | 211° |
| 2026-05-06 04:52 | 7.66884 | 105.96737 | 39879 ft | 511 kts | 211° |
| 2026-05-06 04:52 | 7.60816 | 105.92990 | 39877 ft | 511 kts | 211° |
| 2026-05-06 04:53 | 7.55763 | 105.89872 | 39877 ft | 511 kts | 211° |
| 2026-05-06 04:53 | 7.49700 | 105.86130 | 39879 ft | 511 kts | 211° |
| 2026-05-06 04:54 | 7.42642 | 105.81777 | 39876 ft | 511 kts | 210° |
| 2026-05-06 04:54 | 7.36572 | 105.78033 | 39873 ft | 511 kts | 210° |
| 2026-05-06 04:55 | 7.31483 | 105.74896 | 39875 ft | 511 kts | 210° |
| 2026-05-06 04:55 | 7.25411 | 105.71156 | 39874 ft | 512 kts | 211° |
| 2026-05-06 04:56 | 7.19337 | 105.67414 | 39879 ft | 512 kts | 211° |
| 2026-05-06 04:56 | 7.13298 | 105.63693 | 39878 ft | 512 kts | 211° |
| 2026-05-06 04:57 | 7.07223 | 105.59953 | 39877 ft | 512 kts | 211° |
| 2026-05-06 04:57 | 7.01148 | 105.56214 | 39873 ft | 511 kts | 211° |
| 2026-05-06 04:58 | 6.94966 | 105.52669 | 39875 ft | 511 kts | 206° |
| 2026-05-06 04:58 | 6.88584 | 105.49535 | 39875 ft | 511 kts | 205° |
| 2026-05-06 04:59 | 6.82192 | 105.46407 | 39870 ft | 511 kts | 205° |
| 2026-05-06 04:59 | 6.75833 | 105.43214 | 39869 ft | 511 kts | 206° |
| 2026-05-06 05:00 | 6.69496 | 105.39992 | 39869 ft | 511 kts | 206° |
| 2026-05-06 05:00 | 6.63155 | 105.36762 | 39866 ft | 511 kts | 206° |
| 2026-05-06 05:01 | 6.56817 | 105.33538 | 39867 ft | 511 kts | 206° |
| 2026-05-06 05:01 | 6.50478 | 105.30315 | 39868 ft | 511 kts | 206° |
| 2026-05-06 05:02 | 6.44137 | 105.27094 | 39868 ft | 510 kts | 206° |
| 2026-05-06 05:02 | 6.37833 | 105.23893 | 39868 ft | 510 kts | 206° |
| 2026-05-06 05:03 | 6.31495 | 105.20675 | 39867 ft | 510 kts | 206° |
| 2026-05-06 05:03 | 6.25154 | 105.17456 | 39873 ft | 510 kts | 206° |
| 2026-05-06 05:04 | 6.18814 | 105.14239 | 39878 ft | 510 kts | 206° |
| 2026-05-06 05:04 | 6.12474 | 105.11022 | 39874 ft | 510 kts | 206° |
| 2026-05-06 05:05 | 6.06137 | 105.07808 | 39870 ft | 510 kts | 206° |
| 2026-05-06 05:05 | 5.99796 | 105.04593 | 39872 ft | 510 kts | 206° |
| 2026-05-06 05:06 | 5.93451 | 105.01377 | 39870 ft | 510 kts | 205° |
| 2026-05-06 05:06 | 5.87104 | 104.98161 | 39871 ft | 511 kts | 205° |
| 2026-05-06 05:07 | 5.80798 | 104.94966 | 39870 ft | 511 kts | 205° |
| 2026-05-06 05:07 | 5.74444 | 104.91747 | 39873 ft | 511 kts | 205° |
| 2026-05-06 05:08 | 5.68086 | 104.88528 | 39869 ft | 512 kts | 205° |
| 2026-05-06 05:08 | 5.61735 | 104.85313 | 39870 ft | 512 kts | 205° |
| 2026-05-06 05:09 | 5.55375 | 104.82094 | 39871 ft | 512 kts | 205° |
| 2026-05-06 05:09 | 5.49006 | 104.78871 | 39871 ft | 512 kts | 205° |
| 2026-05-06 05:10 | 5.42644 | 104.75652 | 39869 ft | 512 kts | 205° |
| 2026-05-06 05:10 | 5.36276 | 104.72431 | 39866 ft | 512 kts | 205° |
| 2026-05-06 05:11 | 5.29947 | 104.69231 | 39866 ft | 513 kts | 205° |
| 2026-05-06 05:11 | 5.23575 | 104.66010 | 39871 ft | 513 kts | 205° |
| 2026-05-06 05:12 | 5.17197 | 104.62786 | 39867 ft | 512 kts | 205° |
| 2026-05-06 05:12 | 5.10825 | 104.59566 | 39869 ft | 512 kts | 205° |
| 2026-05-06 05:13 | 5.04458 | 104.56350 | 39868 ft | 512 kts | 206° |
| 2026-05-06 05:13 | 4.98094 | 104.53136 | 39871 ft | 512 kts | 206° |
| 2026-05-06 05:14 | 4.91693 | 104.49978 | 39863 ft | 512 kts | 201° |
| 2026-05-06 05:14 | 4.84897 | 104.48240 | 39867 ft | 507 kts | 183° |
| 2026-05-06 05:15 | 4.77871 | 104.48547 | 39871 ft | 505 kts | 172° |
| 2026-05-06 05:15 | 4.70890 | 104.49431 | 39873 ft | 505 kts | 171° |
| 2026-05-06 05:16 | 4.63913 | 104.50376 | 39872 ft | 505 kts | 171° |
| 2026-05-06 05:16 | 4.56940 | 104.51286 | 39875 ft | 505 kts | 171° |
| 2026-05-06 05:17 | 4.49957 | 104.52171 | 39872 ft | 506 kts | 172° |
| 2026-05-06 05:17 | 4.42978 | 104.53049 | 39873 ft | 506 kts | 172° |
| 2026-05-06 05:18 | 4.36041 | 104.53922 | 39872 ft | 505 kts | 172° |
| 2026-05-06 05:18 | 4.29063 | 104.54802 | 39870 ft | 505 kts | 172° |
| 2026-05-06 05:19 | 4.22083 | 104.55682 | 39866 ft | 505 kts | 172° |
| 2026-05-06 05:19 | 4.15113 | 104.56560 | 39870 ft | 505 kts | 172° |
| 2026-05-06 05:20 | 4.08131 | 104.57434 | 39868 ft | 505 kts | 172° |
| 2026-05-06 05:20 | 4.01156 | 104.58304 | 39868 ft | 505 kts | 172° |
| 2026-05-06 05:21 | 3.94175 | 104.59175 | 39867 ft | 505 kts | 172° |
| 2026-05-06 05:21 | 3.87199 | 104.60044 | 39865 ft | 505 kts | 172° |
| 2026-05-06 05:22 | 3.80208 | 104.60774 | 39855 ft | 507 kts | 179° |
| 2026-05-06 05:22 | 3.76724 | 104.60336 | 39801 ft | 505 kts | 194° |
| 2026-05-06 05:22 | 3.73405 | 104.59298 | 39562 ft | 497 kts | 200° |
| 2026-05-06 05:22 | 3.70086 | 104.58412 | 39334 ft | 491 kts | 186° |
| 2026-05-06 05:23 | 3.66690 | 104.58263 | 39096 ft | 488 kts | 175° |
| 2026-05-06 05:23 | 3.63340 | 104.58722 | 38872 ft | 487 kts | 165° |
| 2026-05-06 05:23 | 3.57045 | 104.61089 | 38404 ft | 486 kts | 156° |
| 2026-05-06 05:24 | 3.53829 | 104.62170 | 38140 ft | 489 kts | 165° |
| 2026-05-06 05:24 | 3.50480 | 104.62741 | 37833 ft | 489 kts | 172° |
| 2026-05-06 05:24 | 3.47099 | 104.63088 | 37283 ft | 487 kts | 173° |
| 2026-05-06 05:24 | 3.43729 | 104.63408 | 36660 ft | 487 kts | 173° |
| 2026-05-06 05:25 | 3.40359 | 104.63731 | 36012 ft | 487 kts | 173° |
| 2026-05-06 05:25 | 3.36980 | 104.64058 | 35353 ft | 488 kts | 173° |
| 2026-05-06 05:25 | 3.33597 | 104.64387 | 34674 ft | 489 kts | 174° |
| 2026-05-06 05:25 | 3.30197 | 104.64719 | 33917 ft | 492 kts | 174° |
| 2026-05-06 05:26 | 3.26779 | 104.65053 | 33203 ft | 492 kts | 174° |
| 2026-05-06 05:26 | 3.23386 | 104.65385 | 32691 ft | 488 kts | 174° |
| 2026-05-06 05:26 | 3.20013 | 104.65715 | 32156 ft | 485 kts | 173° |
| 2026-05-06 05:26 | 3.16669 | 104.66042 | 31626 ft | 482 kts | 173° |
| 2026-05-06 05:27 | 3.13335 | 104.66369 | 31088 ft | 479 kts | 173° |
| 2026-05-06 05:27 | 3.10028 | 104.66688 | 30554 ft | 477 kts | 173° |
| 2026-05-06 05:27 | 3.06718 | 104.66655 | 30009 ft | 477 kts | 187° |
| 2026-05-06 05:27 | 3.03527 | 104.65773 | 29412 ft | 477 kts | 202° |
| 2026-05-06 05:28 | 3.00694 | 104.64063 | 28857 ft | 476 kts | 218° |
| 2026-05-06 05:28 | 2.98336 | 104.61746 | 28325 ft | 474 kts | 226° |
| 2026-05-06 05:28 | 2.96138 | 104.59303 | 27793 ft | 471 kts | 227° |
| 2026-05-06 05:28 | 2.93949 | 104.56883 | 27278 ft | 467 kts | 226° |
| 2026-05-06 05:29 | 2.91762 | 104.54499 | 26730 ft | 464 kts | 226° |
| 2026-05-06 05:29 | 2.89575 | 104.52135 | 26220 ft | 461 kts | 226° |
| 2026-05-06 05:29 | 2.87400 | 104.49796 | 25690 ft | 458 kts | 226° |
| 2026-05-06 05:29 | 2.85234 | 104.47473 | 25168 ft | 456 kts | 226° |
| 2026-05-06 05:30 | 2.83072 | 104.45158 | 24643 ft | 453 kts | 226° |
| 2026-05-06 05:30 | 2.80948 | 104.42886 | 24112 ft | 451 kts | 226° |
| 2026-05-06 05:30 | 2.78807 | 104.40598 | 23589 ft | 449 kts | 226° |
| 2026-05-06 05:30 | 2.76677 | 104.38320 | 22992 ft | 447 kts | 226° |
| 2026-05-06 05:31 | 2.74560 | 104.36058 | 22437 ft | 443 kts | 226° |
| 2026-05-06 05:31 | 2.72466 | 104.33821 | 21906 ft | 439 kts | 226° |
| 2026-05-06 05:31 | 2.70384 | 104.31596 | 21373 ft | 435 kts | 226° |
| 2026-05-06 05:31 | 2.68329 | 104.29401 | 20982 ft | 428 kts | 226° |
| 2026-05-06 05:32 | 2.66325 | 104.27259 | 20868 ft | 417 kts | 226° |
| 2026-05-06 05:32 | 2.64348 | 104.25147 | 20861 ft | 417 kts | 226° |
| 2026-05-06 05:32 | 2.62360 | 104.23024 | 20862 ft | 418 kts | 226° |
| 2026-05-06 05:32 | 2.60375 | 104.20905 | 20862 ft | 418 kts | 226° |
| 2026-05-06 05:33 | 2.58397 | 104.18792 | 20858 ft | 411 kts | 226° |
| 2026-05-06 05:33 | 2.56481 | 104.16745 | 20856 ft | 394 kts | 225° |
| 2026-05-06 05:33 | 2.54649 | 104.14787 | 20853 ft | 378 kts | 225° |
| 2026-05-06 05:33 | 2.52882 | 104.12901 | 20856 ft | 364 kts | 225° |
| 2026-05-06 05:34 | 2.50980 | 104.11274 | 20853 ft | 359 kts | 208° |
| 2026-05-06 05:34 | 2.48669 | 104.10463 | 20823 ft | 349 kts | 185° |
| 2026-05-06 05:34 | 2.46258 | 104.10352 | 20380 ft | 347 kts | 177° |
| 2026-05-06 05:34 | 2.43835 | 104.10401 | 19782 ft | 346 kts | 177° |
| 2026-05-06 05:35 | 2.41439 | 104.10444 | 18960 ft | 344 kts | 177° |
| 2026-05-06 05:35 | 2.39048 | 104.10470 | 18155 ft | 343 kts | 178° |
| 2026-05-06 05:35 | 2.36673 | 104.10484 | 17278 ft | 339 kts | 178° |
| 2026-05-06 05:35 | 2.34326 | 104.10491 | 16439 ft | 335 kts | 178° |
| 2026-05-06 05:36 | 2.32033 | 104.10495 | 15633 ft | 332 kts | 178° |
| 2026-05-06 05:36 | 2.29710 | 104.10498 | 14835 ft | 328 kts | 178° |
| 2026-05-06 05:36 | 2.27470 | 104.10499 | 14098 ft | 324 kts | 179° |
| 2026-05-06 05:36 | 2.25264 | 104.10499 | 13661 ft | 310 kts | 179° |
| 2026-05-06 05:37 | 2.23156 | 104.10499 | 13274 ft | 295 kts | 179° |
| 2026-05-06 05:37 | 2.21149 | 104.10498 | 12991 ft | 286 kts | 179° |
| 2026-05-06 05:37 | 2.19146 | 104.10500 | 12683 ft | 288 kts | 179° |
| 2026-05-06 05:37 | 2.17144 | 104.10501 | 12381 ft | 288 kts | 179° |
| 2026-05-06 05:38 | 2.15143 | 104.10501 | 12072 ft | 287 kts | 179° |
| 2026-05-06 05:38 | 2.13158 | 104.10501 | 11769 ft | 285 kts | 179° |
| 2026-05-06 05:38 | 2.11176 | 104.10501 | 11461 ft | 284 kts | 179° |
| 2026-05-06 05:38 | 2.09203 | 104.10501 | 11162 ft | 282 kts | 179° |
| 2026-05-06 05:39 | 2.07245 | 104.10501 | 10883 ft | 278 kts | 179° |
| 2026-05-06 05:39 | 2.05375 | 104.10500 | 10739 ft | 258 kts | 179° |
| 2026-05-06 05:39 | 2.03625 | 104.10499 | 10623 ft | 248 kts | 179° |
| 2026-05-06 05:39 | 2.01926 | 104.10500 | 10498 ft | 242 kts | 179° |
| 2026-05-06 05:40 | 2.00241 | 104.10500 | 10372 ft | 243 kts | 179° |
| 2026-05-06 05:40 | 1.98552 | 104.10500 | 10151 ft | 242 kts | 179° |
| 2026-05-06 05:40 | 1.96862 | 104.10505 | 9875 ft | 244 kts | 178° |
| 2026-05-06 05:40 | 1.95112 | 104.10516 | 9705 ft | 257 kts | 179° |
| 2026-05-06 05:41 | 1.93311 | 104.10525 | 9576 ft | 258 kts | 179° |
| 2026-05-06 05:41 | 1.92121 | 104.10531 | 9343 ft | 259 kts | 179° |
| 2026-05-06 05:41 | 1.90318 | 104.10539 | 8946 ft | 261 kts | 179° |
| 2026-05-06 05:41 | 1.88496 | 104.10549 | 8585 ft | 261 kts | 179° |
| 2026-05-06 05:42 | 1.86093 | 104.10558 | 8184 ft | 258 kts | 179° |
| 2026-05-06 05:42 | 1.84306 | 104.10566 | 7913 ft | 255 kts | 179° |
| 2026-05-06 05:42 | 1.83134 | 104.10571 | 7733 ft | 254 kts | 179° |
| 2026-05-06 05:42 | 1.80782 | 104.10582 | 7374 ft | 252 kts | 179° |
| 2026-05-06 05:43 | 1.79029 | 104.10590 | 7106 ft | 251 kts | 179° |
| 2026-05-06 05:43 | 1.77288 | 104.10598 | 6837 ft | 250 kts | 179° |
| 2026-05-06 05:43 | 1.76136 | 104.10603 | 6666 ft | 249 kts | 179° |
| 2026-05-06 05:43 | 1.74404 | 104.10611 | 6394 ft | 248 kts | 180° |
| 2026-05-06 05:44 | 1.72681 | 104.10619 | 6117 ft | 247 kts | 180° |
| 2026-05-06 05:44 | 1.70962 | 104.10626 | 5841 ft | 246 kts | 180° |
| 2026-05-06 05:44 | 1.69265 | 104.10634 | 5653 ft | 240 kts | 180° |
| 2026-05-06 05:44 | 1.67622 | 104.10641 | 5518 ft | 231 kts | 180° |
| 2026-05-06 05:45 | 1.66041 | 104.10648 | 5394 ft | 222 kts | 180° |
| 2026-05-06 05:45 | 1.64524 | 104.10655 | 5235 ft | 214 kts | 180° |
| 2026-05-06 05:45 | 1.63054 | 104.10662 | 5012 ft | 209 kts | 180° |
| 2026-05-06 05:45 | 1.61610 | 104.10558 | 4764 ft | 209 kts | 193° |
| 2026-05-06 05:46 | 1.60273 | 104.09997 | 4514 ft | 208 kts | 208° |
| 2026-05-06 05:46 | 1.59017 | 104.09289 | 4276 ft | 207 kts | 210° |
| 2026-05-06 05:46 | 1.57785 | 104.08584 | 4056 ft | 206 kts | 210° |
| 2026-05-06 05:46 | 1.56523 | 104.07869 | 3824 ft | 205 kts | 209° |
| 2026-05-06 05:47 | 1.55299 | 104.07181 | 3600 ft | 205 kts | 209° |
| 2026-05-06 05:47 | 1.54060 | 104.06488 | 3386 ft | 204 kts | 209° |
| 2026-05-06 05:47 | 1.52825 | 104.05799 | 3147 ft | 203 kts | 209° |
| 2026-05-06 05:47 | 1.51608 | 104.05091 | 2918 ft | 202 kts | 213° |
| 2026-05-06 05:48 | 1.50409 | 104.04367 | 2704 ft | 201 kts | 204° |
| 2026-05-06 05:48 | 1.49116 | 104.03837 | 2656 ft | 201 kts | 202° |
| 2026-05-06 05:48 | 1.47855 | 104.03282 | 2520 ft | 193 kts | 205° |
| 2026-05-06 05:48 | 1.46647 | 104.02733 | 2266 ft | 189 kts | 203° |
| 2026-05-06 05:49 | 1.45431 | 104.02210 | 1880 ft | 193 kts | 202° |
| 2026-05-06 05:49 | 1.44203 | 104.01694 | 1564 ft | 186 kts | 202° |
| 2026-05-06 05:49 | 1.43054 | 104.01204 | 1491 ft | 171 kts | 202° |
| 2026-05-06 05:49 | 1.41983 | 104.00742 | 1125 ft | 167 kts | 203° |
| 2026-05-06 05:50 | 1.40925 | 104.00285 | 775 ft | 163 kts | 202° |
| 2026-05-06 05:50 | 1.39902 | 103.99867 | 519 ft | 153 kts | 200° |
| 2026-05-06 05:50 | 1.38950 | 103.99465 | 297 ft | 143 kts | 201° |
| 2026-05-06 05:50 | 1.38063 | 103.99088 | 125 ft | 135 kts | 200° |
| 2026-05-06 05:51 | 1.37206 | 103.98729 | 37 ft | 131 kts | 201° |
| 2026-05-06 05:51 | 1.36564 | 103.98452 | 40 ft | 60 kts | 205° |
| 2026-05-06 05:51 | 1.36326 | 103.98349 | 39 ft | 32 kts | 204° |
| 2026-05-06 05:51 | 1.36118 | 103.98282 | 37 ft | 31 kts | 188° |
| 2026-05-06 05:52 | 1.35937 | 103.98287 | 39 ft | 10 kts | 173° |
| 2026-05-06 05:52 | 1.35869 | 103.98295 | 39 ft | 11 kts | 173° |
| 2026-05-06 05:52 | 1.35788 | 103.98305 | 39 ft | 13 kts | 175° |
| 2026-05-06 05:52 | 1.35697 | 103.98281 | 39 ft | 15 kts | 204° |
| 2026-05-06 05:53 | 1.35598 | 103.98239 | 39 ft | 16 kts | 202° |
| 2026-05-06 05:53 | 1.35488 | 103.98193 | 39 ft | 18 kts | 203° |
| 2026-05-06 05:53 | 1.35369 | 103.98144 | 40 ft | 19 kts | 202° |
| 2026-05-06 05:53 | 1.35240 | 103.98089 | 40 ft | 21 kts | 203° |
| 2026-05-06 05:54 | 1.35102 | 103.98031 | 40 ft | 22 kts | 203° |
| 2026-05-06 05:54 | 1.34955 | 103.97969 | 39 ft | 24 kts | 203° |
| 2026-05-06 05:54 | 1.34860 | 103.97933 | 39 ft | 12 kts | 186° |
| 2026-05-06 05:54 | 1.34811 | 103.97984 | 39 ft | 11 kts | 113° |
| 2026-05-06 05:55 | 1.34778 | 103.98062 | 39 ft | 13 kts | 113° |
| 2026-05-06 05:55 | 1.34734 | 103.98165 | 39 ft | 22 kts | 113° |
| 2026-05-06 05:55 | 1.34680 | 103.98292 | 50 ft | 16 kts | 113° |
| 2026-05-06 05:55 | 1.34640 | 103.98388 | 51 ft | 15 kts | 113° |
| 2026-05-06 05:56 | 1.34594 | 103.98496 | 49 ft | 21 kts | 113° |
| 2026-05-06 05:56 | 1.34531 | 103.98641 | 39 ft | 16 kts | 114° |
| 2026-05-06 05:56 | 1.34549 | 103.98704 | 39 ft | 10 kts | 34° |
| 2026-05-06 05:56 | 1.34621 | 103.98736 | 39 ft | 12 kts | 22° |
| 2026-05-06 05:57 | 1.34707 | 103.98772 | 39 ft | 15 kts | 22° |
| 2026-05-06 05:57 | 1.34807 | 103.98813 | 37 ft | 17 kts | 22° |
| 2026-05-06 05:57 | 1.34921 | 103.98861 | 37 ft | 19 kts | 23° |
| 2026-05-06 05:57 | 1.35000 | 103.98895 | 39 ft | 0 kts | 23° |
| 2026-05-06 05:58 | 1.35003 | 103.98896 | 39 ft | 4 kts | 23° |
| 2026-05-06 05:58 | 1.35064 | 103.98916 | 39 ft | 9 kts | 357° |
| 2026-05-06 05:58 | 1.35098 | 103.98873 | 39 ft | 9 kts | 297° |
| 2026-05-06 05:58 | 1.35107 | 103.98853 | 39 ft | 2 kts | 294° |
| 2026-05-06 05:59 | 1.35108 | 103.98852 | 39 ft | 0 kts | 294° |